sensor_id;sensor_type;location;lat;lon;timestamp;temperature;humidity
9179;DHT22;4624;48.126;11.546;2022-11-09T00:01:18;9.00;94.70
9179;DHT22;4624;48.126;11.546;2022-11-09T00:03:45;8.90;94.70
9179;DHT22;4624;48.126;11.546;2022-11-09T00:06:12;8.90;94.70
9179;DHT22;4624;48.126;11.546;2022-11-09T00:08:40;8.90;94.70
9179;DHT22;4624;48.126;11.546;2022-11-09T00:11:08;9.00;94.70
9179;DHT22;4624;48.126;11.546;2022-11-09T00:13:36;9.00;94.60
9179;DHT22;4624;48.126;11.546;2022-11-09T00:16:05;9.00;94.50
9179;DHT22;4624;48.126;11.546;2022-11-09T00:18:34;8.90;94.60
9179;DHT22;4624;48.126;11.546;2022-11-09T00:21:05;8.90;94.70
9179;DHT22;4624;48.126;11.546;2022-11-09T00:23:31;9.00;94.80
9179;DHT22;4624;48.126;11.546;2022-11-09T00:25:59;8.90;94.70
9179;DHT22;4624;48.126;11.546;2022-11-09T00:28:26;8.90;94.70
9179;DHT22;4624;48.126;11.546;2022-11-09T00:30:57;8.90;94.70
9179;DHT22;4624;48.126;11.546;2022-11-09T00:33:26;8.90;94.70
9179;DHT22;4624;48.126;11.546;2022-11-09T00:35:53;8.90;94.60
9179;DHT22;4624;48.126;11.546;2022-11-09T00:38:20;8.90;94.50
9179;DHT22;4624;48.126;11.546;2022-11-09T00:40:46;8.80;94.40
9179;DHT22;4624;48.126;11.546;2022-11-09T00:43:13;8.80;94.40
9179;DHT22;4624;48.126;11.546;2022-11-09T00:45:41;8.80;94.40
9179;DHT22;4624;48.126;11.546;2022-11-09T00:48:07;8.90;94.40
9179;DHT22;4624;48.126;11.546;2022-11-09T00:50:36;8.90;94.30
9179;DHT22;4624;48.126;11.546;2022-11-09T00:53:02;8.90;94.30
9179;DHT22;4624;48.126;11.546;2022-11-09T00:55:29;8.90;94.20
9179;DHT22;4624;48.126;11.546;2022-11-09T00:57:56;8.80;94.10
9179;DHT22;4624;48.126;11.546;2022-11-09T01:00:23;8.80;94.00
9179;DHT22;4624;48.126;11.546;2022-11-09T01:02:50;8.80;93.90
9179;DHT22;4624;48.126;11.546;2022-11-09T01:05:17;8.70;93.80
9179;DHT22;4624;48.126;11.546;2022-11-09T01:07:45;8.70;93.80
9179;DHT22;4624;48.126;11.546;2022-11-09T01:10:12;8.70;93.80
9179;DHT22;4624;48.126;11.546;2022-11-09T01:12:38;8.70;93.80
9179;DHT22;4624;48.126;11.546;2022-11-09T01:15:06;8.80;93.80
9179;DHT22;4624;48.126;11.546;2022-11-09T01:17:33;8.70;93.80
9179;DHT22;4624;48.126;11.546;2022-11-09T01:19:59;8.80;93.90
9179;DHT22;4624;48.126;11.546;2022-11-09T01:22:26;8.70;93.60
9179;DHT22;4624;48.126;11.546;2022-11-09T01:24:54;8.70;93.70
9179;DHT22;4624;48.126;11.546;2022-11-09T01:27:21;8.70;93.80
9179;DHT22;4624;48.126;11.546;2022-11-09T01:29:48;8.70;93.90
9179;DHT22;4624;48.126;11.546;2022-11-09T01:32:14;8.70;93.90
9179;DHT22;4624;48.126;11.546;2022-11-09T01:34:41;8.70;93.90
9179;DHT22;4624;48.126;11.546;2022-11-09T01:37:08;8.70;93.80
9179;DHT22;4624;48.126;11.546;2022-11-09T01:39:34;8.60;93.70
9179;DHT22;4624;48.126;11.546;2022-11-09T01:42:03;8.50;93.60
9179;DHT22;4624;48.126;11.546;2022-11-09T01:44:30;8.50;93.70
9179;DHT22;4624;48.126;11.546;2022-11-09T01:47:02;8.40;93.80
9179;DHT22;4624;48.126;11.546;2022-11-09T01:49:36;8.40;93.90
9179;DHT22;4624;48.126;11.546;2022-11-09T01:52:08;8.50;93.90
9179;DHT22;4624;48.126;11.546;2022-11-09T01:54:39;8.40;93.80
9179;DHT22;4624;48.126;11.546;2022-11-09T01:57:11;8.40;93.90
9179;DHT22;4624;48.126;11.546;2022-11-09T01:59:43;8.40;93.80
9179;DHT22;4624;48.126;11.546;2022-11-09T02:02:12;8.40;93.90
9179;DHT22;4624;48.126;11.546;2022-11-09T02:04:42;8.40;93.80
9179;DHT22;4624;48.126;11.546;2022-11-09T02:07:10;8.40;93.90
9179;DHT22;4624;48.126;11.546;2022-11-09T02:09:39;8.40;93.90
9179;DHT22;4624;48.126;11.546;2022-11-09T02:12:09;8.40;93.90
9179;DHT22;4624;48.126;11.546;2022-11-09T02:14:37;8.40;93.90
9179;DHT22;4624;48.126;11.546;2022-11-09T02:17:04;8.30;93.90
9179;DHT22;4624;48.126;11.546;2022-11-09T02:19:32;8.30;94.30
9179;DHT22;4624;48.126;11.546;2022-11-09T02:22:00;8.30;93.90
9179;DHT22;4624;48.126;11.546;2022-11-09T02:24:28;8.30;94.00
9179;DHT22;4624;48.126;11.546;2022-11-09T02:26:56;8.20;94.00
9179;DHT22;4624;48.126;11.546;2022-11-09T02:29:26;8.20;94.20
9179;DHT22;4624;48.126;11.546;2022-11-09T02:31:56;8.20;94.00
9179;DHT22;4624;48.126;11.546;2022-11-09T02:34:24;8.20;94.10
9179;DHT22;4624;48.126;11.546;2022-11-09T02:36:51;8.20;94.20
9179;DHT22;4624;48.126;11.546;2022-11-09T02:39:21;8.30;94.30
9179;DHT22;4624;48.126;11.546;2022-11-09T02:41:50;8.20;94.40
9179;DHT22;4624;48.126;11.546;2022-11-09T02:44:19;8.20;94.40
9179;DHT22;4624;48.126;11.546;2022-11-09T02:46:46;8.10;94.30
9179;DHT22;4624;48.126;11.546;2022-11-09T02:49:12;8.10;94.40
9179;DHT22;4624;48.126;11.546;2022-11-09T02:51:39;8.10;94.50
9179;DHT22;4624;48.126;11.546;2022-11-09T02:54:06;8.10;94.50
9179;DHT22;4624;48.126;11.546;2022-11-09T02:56:34;8.10;94.50
9179;DHT22;4624;48.126;11.546;2022-11-09T02:59:01;8.10;94.50
9179;DHT22;4624;48.126;11.546;2022-11-09T03:01:28;8.10;94.60
9179;DHT22;4624;48.126;11.546;2022-11-09T03:03:55;8.10;94.50
9179;DHT22;4624;48.126;11.546;2022-11-09T03:06:22;8.10;94.60
9179;DHT22;4624;48.126;11.546;2022-11-09T03:08:58;8.00;94.50
9179;DHT22;4624;48.126;11.546;2022-11-09T03:11:25;8.00;94.50
9179;DHT22;4624;48.126;11.546;2022-11-09T03:13:53;8.00;94.60
9179;DHT22;4624;48.126;11.546;2022-11-09T03:16:20;8.00;94.70
9179;DHT22;4624;48.126;11.546;2022-11-09T03:18:47;8.00;94.70
9179;DHT22;4624;48.126;11.546;2022-11-09T03:21:14;8.00;94.70
9179;DHT22;4624;48.126;11.546;2022-11-09T03:23:40;8.00;94.80
9179;DHT22;4624;48.126;11.546;2022-11-09T03:26:07;8.00;94.80
9179;DHT22;4624;48.126;11.546;2022-11-09T03:28:34;8.00;94.90
9179;DHT22;4624;48.126;11.546;2022-11-09T03:31:02;8.00;94.70
9179;DHT22;4624;48.126;11.546;2022-11-09T03:33:29;8.00;94.70
9179;DHT22;4624;48.126;11.546;2022-11-09T03:35:56;8.00;94.50
9179;DHT22;4624;48.126;11.546;2022-11-09T03:38:22;8.00;94.20
9179;DHT22;4624;48.126;11.546;2022-11-09T03:40:50;8.10;94.10
9179;DHT22;4624;48.126;11.546;2022-11-09T03:43:17;8.10;93.80
9179;DHT22;4624;48.126;11.546;2022-11-09T03:45:44;8.20;93.30
9179;DHT22;4624;48.126;11.546;2022-11-09T03:48:13;8.30;93.20
9179;DHT22;4624;48.126;11.546;2022-11-09T03:50:39;8.40;93.00
9179;DHT22;4624;48.126;11.546;2022-11-09T03:53:07;8.40;92.80
9179;DHT22;4624;48.126;11.546;2022-11-09T03:55:35;8.50;92.70
9179;DHT22;4624;48.126;11.546;2022-11-09T03:58:02;8.60;92.50
9179;DHT22;4624;48.126;11.546;2022-11-09T04:00:30;8.60;92.60
9179;DHT22;4624;48.126;11.546;2022-11-09T04:02:57;8.70;92.40
9179;DHT22;4624;48.126;11.546;2022-11-09T04:05:25;8.70;92.30
9179;DHT22;4624;48.126;11.546;2022-11-09T04:07:53;8.70;92.00
9179;DHT22;4624;48.126;11.546;2022-11-09T04:10:21;8.80;92.00
9179;DHT22;4624;48.126;11.546;2022-11-09T04:12:48;8.80;91.80
9179;DHT22;4624;48.126;11.546;2022-11-09T04:15:15;8.90;91.50
9179;DHT22;4624;48.126;11.546;2022-11-09T04:17:42;8.90;91.50
9179;DHT22;4624;48.126;11.546;2022-11-09T04:20:10;8.90;91.30
9179;DHT22;4624;48.126;11.546;2022-11-09T04:22:38;8.90;91.20
9179;DHT22;4624;48.126;11.546;2022-11-09T04:25:06;9.00;91.20
9179;DHT22;4624;48.126;11.546;2022-11-09T04:27:32;9.00;91.20
9179;DHT22;4624;48.126;11.546;2022-11-09T04:29:59;9.00;90.80
9179;DHT22;4624;48.126;11.546;2022-11-09T04:32:26;9.00;90.50
9179;DHT22;4624;48.126;11.546;2022-11-09T04:34:53;9.10;90.50
9179;DHT22;4624;48.126;11.546;2022-11-09T04:37:19;9.10;90.30
9179;DHT22;4624;48.126;11.546;2022-11-09T04:39:47;9.10;90.10
9179;DHT22;4624;48.126;11.546;2022-11-09T04:42:14;9.10;90.20
9179;DHT22;4624;48.126;11.546;2022-11-09T04:44:41;9.10;90.00
9179;DHT22;4624;48.126;11.546;2022-11-09T04:47:08;9.10;89.90
9179;DHT22;4624;48.126;11.546;2022-11-09T04:49:34;9.20;89.40
9179;DHT22;4624;48.126;11.546;2022-11-09T04:52:01;9.20;89.50
9179;DHT22;4624;48.126;11.546;2022-11-09T04:54:28;9.20;89.40
9179;DHT22;4624;48.126;11.546;2022-11-09T04:56:56;9.20;89.20
9179;DHT22;4624;48.126;11.546;2022-11-09T04:59:22;9.20;88.90
9179;DHT22;4624;48.126;11.546;2022-11-09T05:01:49;9.20;89.20
9179;DHT22;4624;48.126;11.546;2022-11-09T05:04:16;9.20;89.60
9179;DHT22;4624;48.126;11.546;2022-11-09T05:06:43;9.20;89.20
9179;DHT22;4624;48.126;11.546;2022-11-09T05:09:09;9.20;88.90
9179;DHT22;4624;48.126;11.546;2022-11-09T05:11:36;9.20;88.60
9179;DHT22;4624;48.126;11.546;2022-11-09T05:14:04;9.20;88.70
9179;DHT22;4624;48.126;11.546;2022-11-09T05:16:31;9.20;88.60
9179;DHT22;4624;48.126;11.546;2022-11-09T05:18:58;9.20;89.20
9179;DHT22;4624;48.126;11.546;2022-11-09T05:21:25;9.20;89.40
9179;DHT22;4624;48.126;11.546;2022-11-09T05:23:52;9.20;89.50
9179;DHT22;4624;48.126;11.546;2022-11-09T05:26:26;9.20;89.40
9179;DHT22;4624;48.126;11.546;2022-11-09T05:28:53;9.20;89.70
9179;DHT22;4624;48.126;11.546;2022-11-09T05:31:23;9.20;89.30
9179;DHT22;4624;48.126;11.546;2022-11-09T05:33:51;9.10;89.40
9179;DHT22;4624;48.126;11.546;2022-11-09T05:36:18;9.10;89.60
9179;DHT22;4624;48.126;11.546;2022-11-09T05:38:44;9.10;89.50
9179;DHT22;4624;48.126;11.546;2022-11-09T05:41:12;9.10;89.60
9179;DHT22;4624;48.126;11.546;2022-11-09T05:43:39;9.10;89.10
9179;DHT22;4624;48.126;11.546;2022-11-09T05:46:06;9.10;89.20
9179;DHT22;4624;48.126;11.546;2022-11-09T05:48:34;9.10;89.10
9179;DHT22;4624;48.126;11.546;2022-11-09T05:51:01;9.00;89.20
9179;DHT22;4624;48.126;11.546;2022-11-09T05:53:28;9.00;89.80
9179;DHT22;4624;48.126;11.546;2022-11-09T05:55:59;9.10;89.10
9179;DHT22;4624;48.126;11.546;2022-11-09T05:58:26;9.00;89.00
9179;DHT22;4624;48.126;11.546;2022-11-09T06:00:53;9.00;89.20
9179;DHT22;4624;48.126;11.546;2022-11-09T06:03:20;9.00;89.10
9179;DHT22;4624;48.126;11.546;2022-11-09T06:05:48;9.00;89.80
9179;DHT22;4624;48.126;11.546;2022-11-09T06:08:14;9.00;89.20
9179;DHT22;4624;48.126;11.546;2022-11-09T06:10:41;9.00;89.70
9179;DHT22;4624;48.126;11.546;2022-11-09T06:13:09;9.00;89.70
9179;DHT22;4624;48.126;11.546;2022-11-09T06:15:36;9.00;90.00
9179;DHT22;4624;48.126;11.546;2022-11-09T06:18:03;9.00;90.00
9179;DHT22;4624;48.126;11.546;2022-11-09T06:20:30;9.00;90.20
9179;DHT22;4624;48.126;11.546;2022-11-09T06:23:00;9.10;90.30
9179;DHT22;4624;48.126;11.546;2022-11-09T06:25:27;9.10;90.20
9179;DHT22;4624;48.126;11.546;2022-11-09T06:27:56;9.10;90.10
9179;DHT22;4624;48.126;11.546;2022-11-09T06:30:22;9.20;90.20
9179;DHT22;4624;48.126;11.546;2022-11-09T06:32:49;9.20;90.30
9179;DHT22;4624;48.126;11.546;2022-11-09T06:35:16;9.20;90.50
9179;DHT22;4624;48.126;11.546;2022-11-09T06:37:43;9.20;90.60
9179;DHT22;4624;48.126;11.546;2022-11-09T06:40:12;9.20;90.50
9179;DHT22;4624;48.126;11.546;2022-11-09T06:42:39;9.20;90.30
9179;DHT22;4624;48.126;11.546;2022-11-09T06:45:07;9.30;90.20
9179;DHT22;4624;48.126;11.546;2022-11-09T06:47:34;9.40;90.20
9179;DHT22;4624;48.126;11.546;2022-11-09T06:50:01;9.40;90.10
9179;DHT22;4624;48.126;11.546;2022-11-09T06:52:27;9.60;90.10
9179;DHT22;4624;48.126;11.546;2022-11-09T06:54:54;9.70;89.80
9179;DHT22;4624;48.126;11.546;2022-11-09T06:57:22;10.20;89.20
9179;DHT22;4624;48.126;11.546;2022-11-09T06:59:49;10.70;89.50
9179;DHT22;4624;48.126;11.546;2022-11-09T07:02:16;11.20;88.90
9179;DHT22;4624;48.126;11.546;2022-11-09T07:04:43;11.60;87.70
9179;DHT22;4624;48.126;11.546;2022-11-09T07:07:10;11.80;86.70
9179;DHT22;4624;48.126;11.546;2022-11-09T07:09:37;12.00;85.40
9179;DHT22;4624;48.126;11.546;2022-11-09T07:12:04;12.00;85.10
9179;DHT22;4624;48.126;11.546;2022-11-09T07:14:34;12.00;84.80
9179;DHT22;4624;48.126;11.546;2022-11-09T07:17:01;11.90;83.90
9179;DHT22;4624;48.126;11.546;2022-11-09T07:19:27;11.70;83.30
9179;DHT22;4624;48.126;11.546;2022-11-09T07:21:54;11.50;83.00
9179;DHT22;4624;48.126;11.546;2022-11-09T07:24:22;11.30;83.30
9179;DHT22;4624;48.126;11.546;2022-11-09T07:26:49;11.10;83.10
9179;DHT22;4624;48.126;11.546;2022-11-09T07:29:16;10.90;83.10
9179;DHT22;4624;48.126;11.546;2022-11-09T07:31:44;10.80;83.50
9179;DHT22;4624;48.126;11.546;2022-11-09T07:34:11;10.60;83.70
9179;DHT22;4624;48.126;11.546;2022-11-09T07:36:37;10.50;83.90
9179;DHT22;4624;48.126;11.546;2022-11-09T07:39:04;10.50;83.90
9179;DHT22;4624;48.126;11.546;2022-11-09T07:41:31;10.50;84.10
9179;DHT22;4624;48.126;11.546;2022-11-09T07:43:58;10.50;84.30
9179;DHT22;4624;48.126;11.546;2022-11-09T07:46:25;10.50;84.50
9179;DHT22;4624;48.126;11.546;2022-11-09T07:48:53;10.60;84.50
9179;DHT22;4624;48.126;11.546;2022-11-09T07:51:19;10.80;84.60
9179;DHT22;4624;48.126;11.546;2022-11-09T07:53:46;10.80;84.20
9179;DHT22;4624;48.126;11.546;2022-11-09T07:56:13;10.90;84.20
9179;DHT22;4624;48.126;11.546;2022-11-09T07:58:40;11.10;84.00
9179;DHT22;4624;48.126;11.546;2022-11-09T08:01:07;11.20;84.10
9179;DHT22;4624;48.126;11.546;2022-11-09T08:03:34;11.50;84.20
9179;DHT22;4624;48.126;11.546;2022-11-09T08:06:02;11.60;83.80
9179;DHT22;4624;48.126;11.546;2022-11-09T08:08:29;11.80;83.60
9179;DHT22;4624;48.126;11.546;2022-11-09T08:10:56;12.10;83.60
9179;DHT22;4624;48.126;11.546;2022-11-09T08:13:23;12.60;83.70
9179;DHT22;4624;48.126;11.546;2022-11-09T08:15:50;13.00;83.20
9179;DHT22;4624;48.126;11.546;2022-11-09T08:18:20;13.40;83.60
9179;DHT22;4624;48.126;11.546;2022-11-09T08:20:47;13.60;82.20
9179;DHT22;4624;48.126;11.546;2022-11-09T08:23:17;13.60;81.20
9179;DHT22;4624;48.126;11.546;2022-11-09T08:25:45;13.70;80.20
9179;DHT22;4624;48.126;11.546;2022-11-09T08:28:13;13.60;79.60
9179;DHT22;4624;48.126;11.546;2022-11-09T08:30:41;13.60;79.50
9179;DHT22;4624;48.126;11.546;2022-11-09T08:33:08;13.60;79.40
9179;DHT22;4624;48.126;11.546;2022-11-09T08:35:42;13.70;78.70
9179;DHT22;4624;48.126;11.546;2022-11-09T08:38:09;13.90;78.50
9179;DHT22;4624;48.126;11.546;2022-11-09T08:40:37;14.10;77.40
9179;DHT22;4624;48.126;11.546;2022-11-09T08:43:06;14.20;76.60
9179;DHT22;4624;48.126;11.546;2022-11-09T08:45:35;14.30;76.00
9179;DHT22;4624;48.126;11.546;2022-11-09T08:48:03;14.40;76.40
9179;DHT22;4624;48.126;11.546;2022-11-09T08:50:31;14.40;75.70
9179;DHT22;4624;48.126;11.546;2022-11-09T08:52:59;14.30;74.50
9179;DHT22;4624;48.126;11.546;2022-11-09T08:55:26;14.10;74.20
9179;DHT22;4624;48.126;11.546;2022-11-09T08:57:56;13.90;73.80
9179;DHT22;4624;48.126;11.546;2022-11-09T09:00:23;13.70;73.80
9179;DHT22;4624;48.126;11.546;2022-11-09T09:02:50;13.50;73.70
9179;DHT22;4624;48.126;11.546;2022-11-09T09:05:17;13.40;74.30
9179;DHT22;4624;48.126;11.546;2022-11-09T09:07:44;13.30;74.60
9179;DHT22;4624;48.126;11.546;2022-11-09T09:10:11;13.20;75.80
9179;DHT22;4624;48.126;11.546;2022-11-09T09:12:38;13.10;76.50
9179;DHT22;4624;48.126;11.546;2022-11-09T09:15:07;13.00;76.00
9179;DHT22;4624;48.126;11.546;2022-11-09T09:17:34;12.90;75.90
9179;DHT22;4624;48.126;11.546;2022-11-09T09:20:01;12.90;76.00
9179;DHT22;4624;48.126;11.546;2022-11-09T09:22:28;12.90;76.40
9179;DHT22;4624;48.126;11.546;2022-11-09T09:24:55;12.90;77.20
9179;DHT22;4624;48.126;11.546;2022-11-09T09:27:21;13.00;77.80
9179;DHT22;4624;48.126;11.546;2022-11-09T09:29:48;13.00;78.00
9179;DHT22;4624;48.126;11.546;2022-11-09T09:32:16;13.10;77.90
9179;DHT22;4624;48.126;11.546;2022-11-09T09:34:43;13.20;78.00
9179;DHT22;4624;48.126;11.546;2022-11-09T09:37:10;13.30;78.10
9179;DHT22;4624;48.126;11.546;2022-11-09T09:39:36;13.50;78.20
9179;DHT22;4624;48.126;11.546;2022-11-09T09:42:05;13.50;78.40
9179;DHT22;4624;48.126;11.546;2022-11-09T09:44:37;13.60;78.50
9179;DHT22;4624;48.126;11.546;2022-11-09T09:47:10;13.50;78.50
9179;DHT22;4624;48.126;11.546;2022-11-09T09:49:42;13.50;78.80
9179;DHT22;4624;48.126;11.546;2022-11-09T09:52:18;13.50;79.20
9179;DHT22;4624;48.126;11.546;2022-11-09T09:54:51;13.50;79.40
9179;DHT22;4624;48.126;11.546;2022-11-09T09:57:21;13.60;79.90
9179;DHT22;4624;48.126;11.546;2022-11-09T09:59:50;13.60;80.00
9179;DHT22;4624;48.126;11.546;2022-11-09T10:02:24;13.70;79.80
9179;DHT22;4624;48.126;11.546;2022-11-09T10:04:55;14.00;79.60
9179;DHT22;4624;48.126;11.546;2022-11-09T10:07:26;14.20;79.10
9179;DHT22;4624;48.126;11.546;2022-11-09T10:10:19;14.30;78.70
9179;DHT22;4624;48.126;11.546;2022-11-09T10:13:09;14.60;78.30
9179;DHT22;4624;48.126;11.546;2022-11-09T10:15:44;14.90;78.00
9179;DHT22;4624;48.126;11.546;2022-11-09T10:18:24;14.90;77.80
9179;DHT22;4624;48.126;11.546;2022-11-09T10:21:17;14.90;76.80
9179;DHT22;4624;48.126;11.546;2022-11-09T10:23:58;14.70;76.70
9179;DHT22;4624;48.126;11.546;2022-11-09T10:26:38;14.50;76.50
9179;DHT22;4624;48.126;11.546;2022-11-09T10:29:18;14.40;76.60
9179;DHT22;4624;48.126;11.546;2022-11-09T10:31:47;14.30;76.70
9179;DHT22;4624;48.126;11.546;2022-11-09T10:34:17;14.30;77.20
9179;DHT22;4624;48.126;11.546;2022-11-09T10:36:51;14.20;77.20
9179;DHT22;4624;48.126;11.546;2022-11-09T10:39:20;14.20;77.30
9179;DHT22;4624;48.126;11.546;2022-11-09T10:41:49;14.30;77.20
9179;DHT22;4624;48.126;11.546;2022-11-09T10:44:18;14.40;77.10
9179;DHT22;4624;48.126;11.546;2022-11-09T10:47:01;14.90;76.90
9179;DHT22;4624;48.126;11.546;2022-11-09T10:49:28;15.40;76.00
9179;DHT22;4624;48.126;11.546;2022-11-09T10:51:56;15.80;75.40
9179;DHT22;4624;48.126;11.546;2022-11-09T10:54:24;16.60;74.30
9179;DHT22;4624;48.126;11.546;2022-11-09T10:57:09;17.30;72.70
9179;DHT22;4624;48.126;11.546;2022-11-09T10:59:43;18.20;70.50
9179;DHT22;4624;48.126;11.546;2022-11-09T11:02:39;18.70;68.30
9179;DHT22;4624;48.126;11.546;2022-11-09T11:05:36;19.10;66.80
9179;DHT22;4624;48.126;11.546;2022-11-09T11:08:27;19.90;64.90
9179;DHT22;4624;48.126;11.546;2022-11-09T11:11:12;20.30;62.80
9179;DHT22;4624;48.126;11.546;2022-11-09T11:13:40;20.80;60.70
9179;DHT22;4624;48.126;11.546;2022-11-09T11:16:15;20.90;59.60
9179;DHT22;4624;48.126;11.546;2022-11-09T11:18:48;21.10;59.20
9179;DHT22;4624;48.126;11.546;2022-11-09T11:21:17;21.70;58.20
9179;DHT22;4624;48.126;11.546;2022-11-09T11:24:04;22.90;56.80
9179;DHT22;4624;48.126;11.546;2022-11-09T11:26:41;24.30;54.80
9179;DHT22;4624;48.126;11.546;2022-11-09T11:29:26;25.40;52.40
9179;DHT22;4624;48.126;11.546;2022-11-09T11:31:53;26.00;50.40
9179;DHT22;4624;48.126;11.546;2022-11-09T11:34:20;26.10;49.00
9179;DHT22;4624;48.126;11.546;2022-11-09T11:36:57;26.00;48.80
9179;DHT22;4624;48.126;11.546;2022-11-09T11:39:36;25.60;48.30
9179;DHT22;4624;48.126;11.546;2022-11-09T11:42:21;24.20;49.30
9179;DHT22;4624;48.126;11.546;2022-11-09T11:45:02;23.10;50.90
9179;DHT22;4624;48.126;11.546;2022-11-09T11:47:42;22.30;51.90
9179;DHT22;4624;48.126;11.546;2022-11-09T11:50:29;21.50;52.80
9179;DHT22;4624;48.126;11.546;2022-11-09T11:53:16;20.70;53.80
9179;DHT22;4624;48.126;11.546;2022-11-09T11:56:01;20.60;55.00
9179;DHT22;4624;48.126;11.546;2022-11-09T11:58:42;20.80;55.60
9179;DHT22;4624;48.126;11.546;2022-11-09T12:01:25;21.30;55.20
9179;DHT22;4624;48.126;11.546;2022-11-09T12:04:13;21.70;54.80
9179;DHT22;4624;48.126;11.546;2022-11-09T12:06:53;22.00;54.60
9179;DHT22;4624;48.126;11.546;2022-11-09T12:09:42;22.20;54.50
9179;DHT22;4624;48.126;11.546;2022-11-09T12:12:18;22.40;54.30
9179;DHT22;4624;48.126;11.546;2022-11-09T12:15:04;22.90;53.80
9179;DHT22;4624;48.126;11.546;2022-11-09T12:17:43;23.40;53.10
9179;DHT22;4624;48.126;11.546;2022-11-09T12:20:27;24.10;52.40
9179;DHT22;4624;48.126;11.546;2022-11-09T12:26:00;23.90;52.20
9179;DHT22;4624;48.126;11.546;2022-11-09T12:29:00;23.30;52.80
9179;DHT22;4624;48.126;11.546;2022-11-09T12:31:38;22.90;53.60
9179;DHT22;4624;48.126;11.546;2022-11-09T12:34:14;22.80;53.80
9179;DHT22;4624;48.126;11.546;2022-11-09T12:36:47;23.00;54.00
9179;DHT22;4624;48.126;11.546;2022-11-09T12:39:20;23.10;53.90
9179;DHT22;4624;48.126;11.546;2022-11-09T12:41:49;22.80;53.80
9179;DHT22;4624;48.126;11.546;2022-11-09T12:44:24;22.00;54.50
9179;DHT22;4624;48.126;11.546;2022-11-09T12:46:56;21.00;55.70
9179;DHT22;4624;48.126;11.546;2022-11-09T12:49:33;20.10;57.00
9179;DHT22;4624;48.126;11.546;2022-11-09T12:52:00;19.50;58.20
9179;DHT22;4624;48.126;11.546;2022-11-09T12:54:27;19.10;59.10
9179;DHT22;4624;48.126;11.546;2022-11-09T12:56:56;18.90;60.00
9179;DHT22;4624;48.126;11.546;2022-11-09T12:59:36;18.60;60.80
9179;DHT22;4624;48.126;11.546;2022-11-09T13:02:20;18.30;61.90
9179;DHT22;4624;48.126;11.546;2022-11-09T13:04:54;18.00;62.70
9179;DHT22;4624;48.126;11.546;2022-11-09T13:07:42;17.90;63.50
9179;DHT22;4624;48.126;11.546;2022-11-09T13:10:27;17.80;64.60
9179;DHT22;4624;48.126;11.546;2022-11-09T13:13:03;17.60;66.00
9179;DHT22;4624;48.126;11.546;2022-11-09T13:15:32;17.50;66.60
9179;DHT22;4624;48.126;11.546;2022-11-09T13:18:02;17.40;67.10
9179;DHT22;4624;48.126;11.546;2022-11-09T13:20:42;17.20;67.80
9179;DHT22;4624;48.126;11.546;2022-11-09T13:23:33;17.20;68.40
9179;DHT22;4624;48.126;11.546;2022-11-09T13:26:01;17.00;68.80
9179;DHT22;4624;48.126;11.546;2022-11-09T13:34:47;16.80;70.20
9179;DHT22;4624;48.126;11.546;2022-11-09T13:37:45;16.80;70.70
9179;DHT22;4624;48.126;11.546;2022-11-09T13:40:39;16.70;71.20
9179;DHT22;4624;48.126;11.546;2022-11-09T13:43:18;16.60;71.80
9179;DHT22;4624;48.126;11.546;2022-11-09T13:45:46;16.60;71.80
9179;DHT22;4624;48.126;11.546;2022-11-09T13:48:37;16.50;72.20
9179;DHT22;4624;48.126;11.546;2022-11-09T13:51:08;16.50;72.90
9179;DHT22;4624;48.126;11.546;2022-11-09T13:53:50;16.40;73.20
9179;DHT22;4624;48.126;11.546;2022-11-09T13:56:22;16.40;73.50
9179;DHT22;4624;48.126;11.546;2022-11-09T13:58:51;16.30;74.30
9179;DHT22;4624;48.126;11.546;2022-11-09T14:01:43;16.20;75.00
9179;DHT22;4624;48.126;11.546;2022-11-09T14:04:20;16.10;75.20
9179;DHT22;4624;48.126;11.546;2022-11-09T14:06:48;16.00;75.80
9179;DHT22;4624;48.126;11.546;2022-11-09T14:09:17;15.90;76.30
9179;DHT22;4624;48.126;11.546;2022-11-09T14:11:58;15.90;76.80
9179;DHT22;4624;48.126;11.546;2022-11-09T14:14:45;15.90;77.10
9179;DHT22;4624;48.126;11.546;2022-11-09T14:17:19;15.80;77.20
9179;DHT22;4624;48.126;11.546;2022-11-09T14:19:58;15.80;77.40
9179;DHT22;4624;48.126;11.546;2022-11-09T14:22:33;15.80;77.30
9179;DHT22;4624;48.126;11.546;2022-11-09T14:25:04;15.80;77.40
9179;DHT22;4624;48.126;11.546;2022-11-09T14:27:31;15.70;78.00
9179;DHT22;4624;48.126;11.546;2022-11-09T14:29:58;15.60;78.50
9179;DHT22;4624;48.126;11.546;2022-11-09T14:32:29;15.60;78.70
9179;DHT22;4624;48.126;11.546;2022-11-09T14:35:25;15.50;78.50
9179;DHT22;4624;48.126;11.546;2022-11-09T14:37:55;15.50;78.70
9179;DHT22;4624;48.126;11.546;2022-11-09T14:40:25;15.50;79.70
9179;DHT22;4624;48.126;11.546;2022-11-09T14:42:54;15.40;80.10
9179;DHT22;4624;48.126;11.546;2022-11-09T14:45:22;15.30;80.50
9179;DHT22;4624;48.126;11.546;2022-11-09T14:47:51;15.30;81.00
9179;DHT22;4624;48.126;11.546;2022-11-09T14:50:21;15.30;81.30
9179;DHT22;4624;48.126;11.546;2022-11-09T14:52:49;15.20;81.30
9179;DHT22;4624;48.126;11.546;2022-11-09T14:55:19;15.20;81.70
9179;DHT22;4624;48.126;11.546;2022-11-09T14:57:48;15.10;81.80
9179;DHT22;4624;48.126;11.546;2022-11-09T15:00:26;15.10;82.40
9179;DHT22;4624;48.126;11.546;2022-11-09T15:02:54;15.00;82.90
9179;DHT22;4624;48.126;11.546;2022-11-09T15:05:31;15.00;82.90
9179;DHT22;4624;48.126;11.546;2022-11-09T15:08:00;14.90;83.30
9179;DHT22;4624;48.126;11.546;2022-11-09T15:10:28;14.90;83.30
9179;DHT22;4624;48.126;11.546;2022-11-09T15:13:00;14.90;83.70
9179;DHT22;4624;48.126;11.546;2022-11-09T15:15:30;14.80;83.80
9179;DHT22;4624;48.126;11.546;2022-11-09T15:17:57;14.80;83.80
9179;DHT22;4624;48.126;11.546;2022-11-09T15:20:30;14.80;83.90
9179;DHT22;4624;48.126;11.546;2022-11-09T15:22:59;14.80;84.10
9179;DHT22;4624;48.126;11.546;2022-11-09T15:25:30;14.70;84.20
9179;DHT22;4624;48.126;11.546;2022-11-09T15:28:19;14.70;84.40
9179;DHT22;4624;48.126;11.546;2022-11-09T15:30:48;14.60;84.50
9179;DHT22;4624;48.126;11.546;2022-11-09T15:33:40;14.60;84.40
9179;DHT22;4624;48.126;11.546;2022-11-09T15:39:08;14.60;85.30
9179;DHT22;4624;48.126;11.546;2022-11-09T15:41:39;14.50;85.20
9179;DHT22;4624;48.126;11.546;2022-11-09T15:44:06;14.50;85.30
9179;DHT22;4624;48.126;11.546;2022-11-09T15:46:35;14.40;85.50
9179;DHT22;4624;48.126;11.546;2022-11-09T15:49:13;14.50;85.80
9179;DHT22;4624;48.126;11.546;2022-11-09T15:51:40;14.50;86.00
9179;DHT22;4624;48.126;11.546;2022-11-09T15:54:07;14.50;86.00
9179;DHT22;4624;48.126;11.546;2022-11-09T15:56:34;14.40;86.20
9179;DHT22;4624;48.126;11.546;2022-11-09T15:59:02;14.40;86.10
9179;DHT22;4624;48.126;11.546;2022-11-09T16:01:29;14.40;86.60
9179;DHT22;4624;48.126;11.546;2022-11-09T16:03:57;14.30;86.70
9179;DHT22;4624;48.126;11.546;2022-11-09T16:06:24;14.30;87.00
9179;DHT22;4624;48.126;11.546;2022-11-09T16:08:52;14.20;87.00
9179;DHT22;4624;48.126;11.546;2022-11-09T16:11:18;14.30;87.30
9179;DHT22;4624;48.126;11.546;2022-11-09T16:13:45;14.30;87.40
9179;DHT22;4624;48.126;11.546;2022-11-09T16:16:13;14.30;87.60
9179;DHT22;4624;48.126;11.546;2022-11-09T16:18:40;14.30;87.80
9179;DHT22;4624;48.126;11.546;2022-11-09T16:21:08;14.30;88.20
9179;DHT22;4624;48.126;11.546;2022-11-09T16:23:36;14.30;88.50
9179;DHT22;4624;48.126;11.546;2022-11-09T16:26:07;14.20;88.70